Terminal Aerodrome Forecast
Issued by NWS Jackson, KY

Home | Current Version | Previous Version | Text Only | Print | Product List | Glossary On
Versions: 1 2 3 4 5 6 7 8 9 10 11 12 13 14 15 16 17 18 19
000
FTUS43 KJKL 240540
TAFLOZ
TAF
KLOZ 240540Z 2406/2506 10005KT P6SM -SHRA OVC070
     FM240800 10005KT 6SM -SHRA OVC050
     FM241500 VRB03KT 5SM -SHRA BR OVC015
     FM241900 VRB03KT 5SM -SHRA BR VCTS OVC015CB
     FM242300 VRB03KT 4SM BR VCSH OVC015
     FM250400 VRB04KT 3SM BR VCSH OVC005=

USA.gov is the U.S. government's official web portal to all federal, state and local government web resources and services.